LGAD/PYR METAR and TAF weather

Enter ICAO airport designator
Station Type Date Time Source
LGAD METAR 2019/04/25 07:50 UTC NOAA

LGAD 250750Z 00000KT 9999 FEW020 SCT080 18/13 Q1022


Station Type Date Time Source
LGAD Decoded METAR 2019/04/25 07:50 UTC NOAA

Andravida Airport , Greece (LGAD) 37-55N 021-17E 14M
Apr 25, 2019 - 03:50 AM EDT / 2019.04.25 0750 UTC
Wind: Calm:0
Visibility: greater than 7 mile(s):0
Sky conditions: partly cloudy
Temperature: 64 F (18 C)
Dew Point: 55 F (13 C)
Relative Humidity: 72%
Pressure (altimeter): 30.18 in. Hg (1022 hPa)
ob: LGAD 250750Z 00000KT 9999 FEW020 SCT080 18/13 Q1022
cycle: 8

Station Type Date Time Source
LGAD TAF 2011/03/20 15:06 UTC NOAA

TAF TAF LGAD 201400Z 2015/2103 06010KT 9999 FEW020 BKN080 PROB40
TEMPO 2015/2021 6000 RA SCT020 BKN080 PROB30
TEMPO 2015/2021 4000 TSRA FEW018CB SCT025 BKN080

Example: see airport list